Terminal Aerodrome Forecast
Issued by NWS

Home | Current Version | Previous Version | Text Only | Print | Product List | Glossary On
Versions: 1 2 3 4 5 6 7 8 9 10 11 12 13 14 15 16 17 18 19 20
572
FTUS43 KMPX 220520
TAFAXN
TAF
KAXN 220520Z 2206/2306 16005KT P6SM SCT250
     FM221700 14010KT P6SM OVC200
     FM221900 14011KT P6SM VCSH OVC080
     FM222100 13009KT 2SM -SN BR OVC015
     FM230000 10009KT 3/4SM -SN BR VV007=

USA.gov is the U.S. government's official web portal to all federal, state and local government web resources and services.